Аэропорт: Богашево. Томск

ICAO: UNTT

METAR:
2024-04-22 21:30:00
UNTT 222130Z 00000MPS 9999 -SHSN BKN005 BKN019CB M01/M01 Q1013 R21/290150 NOSIG RMK QFE744
TAF:
2024-04-22 21:56:00
TAF AMD UNTT 222156Z 2221/2306 30003G08MPS 6000 -SHSN BKN004 BKN011CB 
  TEMPO 2221/2302 2500 -SHSN BKN007 BKN016CB 
  BECMG 2302/2304 BKN016CB